createdAt,value
2023-07-21T00:00:32.325Z,5.55
2023-07-21T00:02:39.826Z,5.95
2023-07-21T00:04:47.971Z,5.85
2023-07-21T00:06:53.886Z,4.63
2023-07-21T00:08:59.260Z,4.00
2023-07-21T00:11:05.864Z,4.65
2023-07-21T00:13:11.468Z,5.63
2023-07-21T00:15:18.692Z,5.72
2023-07-21T00:17:26.799Z,7.70
2023-07-21T00:19:32.250Z,5.47
2023-07-21T00:21:40.822Z,7.00
2023-07-21T00:23:47.877Z,6.88
2023-07-21T00:25:53.446Z,4.57
2023-07-21T00:27:59.049Z,5.43
2023-07-21T00:30:04.357Z,9.40
2023-07-21T00:32:14.352Z,8.18
2023-07-21T00:34:21.551Z,6.00
2023-07-21T00:36:27.240Z,7.68
2023-07-21T00:38:38.369Z,5.68
2023-07-21T00:40:44.091Z,7.65
2023-07-21T00:42:49.755Z,8.27
2023-07-21T00:44:55.758Z,7.45
2023-07-21T00:47:01.329Z,6.32
2023-07-21T00:49:04.961Z,5.80
2023-07-21T00:51:13.040Z,8.23
2023-07-21T00:53:18.717Z,10.43
2023-07-21T00:55:27.489Z,6.45
2023-07-21T00:57:32.035Z,8.32
2023-07-21T00:59:38.244Z,9.65
2023-07-21T01:01:43.691Z,5.00
2023-07-21T01:03:49.793Z,8.13
2023-07-21T01:05:57.432Z,5.15
2023-07-21T01:08:06.068Z,5.53
2023-07-21T01:10:15.602Z,5.47
2023-07-21T01:12:23.617Z,5.20
2023-07-21T01:14:32.536Z,6.15
2023-07-21T01:16:42.368Z,9.75
2023-07-21T01:18:51.562Z,5.78
2023-07-21T01:20:59.361Z,4.55
2023-07-21T01:23:17.502Z,4.82
2023-07-21T01:25:26.508Z,4.80
2023-07-21T01:27:30.699Z,6.22
2023-07-21T01:29:38.780Z,7.35
2023-07-21T01:31:45.347Z,5.25
2023-07-21T01:33:50.112Z,5.55
2023-07-21T01:35:56.146Z,7.55
2023-07-21T01:38:02.400Z,6.43
2023-07-21T01:40:14.117Z,7.72
2023-07-21T01:42:30.560Z,5.85
2023-07-21T01:44:36.374Z,9.73
2023-07-21T01:46:42.245Z,5.72
2023-07-21T01:48:49.282Z,8.20
2023-07-21T01:50:58.732Z,5.63
2023-07-21T01:53:07.796Z,5.22
2023-07-21T01:55:23.308Z,6.32
2023-07-21T01:57:37.020Z,6.90
2023-07-21T01:59:47.978Z,8.60
2023-07-21T02:01:56.643Z,8.25
2023-07-21T02:04:02.099Z,6.70
2023-07-21T02:06:17.624Z,6.78
2023-07-21T02:08:23.814Z,7.18
2023-07-21T02:10:29.873Z,7.07
2023-07-21T02:12:54.374Z,6.05
2023-07-21T02:14:59.826Z,9.07
2023-07-21T02:17:05.583Z,6.32
2023-07-21T02:19:11.064Z,6.00
2023-07-21T02:21:18.460Z,5.53
2023-07-21T02:23:23.874Z,6.68
2023-07-21T02:25:29.499Z,5.72
2023-07-21T02:27:37.816Z,6.05
2023-07-21T02:29:57.523Z,6.18
2023-07-21T02:32:03.782Z,6.60
2023-07-21T02:34:09.522Z,9.00
2023-07-21T02:36:15.201Z,5.30
2023-07-21T02:38:25.050Z,5.00
2023-07-21T02:40:30.382Z,6.18
2023-07-21T02:42:36.914Z,6.07
2023-07-21T02:44:47.200Z,6.57
2023-07-21T02:46:53.243Z,6.32
2023-07-21T02:48:58.640Z,7.15
2023-07-21T02:51:06.612Z,5.78
2023-07-21T02:53:20.169Z,6.45
2023-07-21T02:55:31.237Z,6.00
2023-07-21T02:57:35.606Z,7.78
2023-07-21T02:59:46.680Z,8.30
2023-07-21T03:01:56.512Z,5.28
2023-07-21T03:04:11.974Z,6.85
2023-07-21T03:06:31.677Z,6.80
2023-07-21T03:08:39.124Z,6.80
2023-07-21T03:10:47.550Z,6.90
2023-07-21T03:12:57.204Z,5.57
2023-07-21T03:15:10.497Z,6.95
2023-07-21T03:17:43.291Z,6.75
2023-07-21T03:19:49.672Z,8.88
2023-07-21T03:21:55.772Z,6.80
2023-07-21T03:24:01.835Z,9.60
2023-07-21T03:26:07.915Z,12.50
2023-07-21T03:28:17.154Z,5.10
2023-07-21T03:30:25.356Z,9.45
2023-07-21T03:32:34.936Z,6.13
2023-07-21T03:34:41.318Z,6.60
2023-07-21T03:36:47.543Z,5.55
2023-07-21T03:38:53.225Z,5.28
2023-07-21T03:41:05.358Z,6.18
2023-07-21T03:43:12.700Z,7.97
2023-07-21T03:45:19.256Z,6.50
2023-07-21T03:47:29.095Z,5.85
2023-07-21T03:49:37.320Z,6.03
2023-07-21T03:51:47.122Z,7.00
2023-07-21T03:53:59.799Z,5.10
2023-07-21T03:56:06.212Z,9.00
2023-07-21T03:58:12.215Z,7.35
2023-07-21T04:00:18.598Z,4.75
2023-07-21T04:02:24.056Z,8.13
2023-07-21T04:04:37.868Z,5.38
2023-07-21T04:06:44.426Z,5.85
2023-07-21T04:08:52.671Z,5.68
2023-07-21T04:10:58.654Z,6.47
2023-07-21T04:13:06.964Z,6.80
2023-07-21T04:15:14.613Z,5.07
2023-07-21T04:17:27.061Z,9.57
2023-07-21T04:19:35.298Z,6.30
2023-07-21T04:21:41.569Z,6.95
2023-07-21T04:23:48.552Z,8.77
2023-07-21T04:25:54.829Z,7.80
2023-07-21T04:28:00.845Z,11.18
2023-07-21T04:30:07.957Z,7.85
2023-07-21T04:32:18.216Z,7.63
2023-07-21T04:34:24.081Z,6.07
2023-07-21T04:36:32.992Z,9.85
2023-07-21T04:38:50.120Z,7.30
2023-07-21T04:40:58.384Z,8.48
2023-07-21T04:43:03.996Z,7.72
2023-07-21T04:45:13.303Z,7.57
2023-07-21T04:47:26.521Z,6.00
2023-07-21T04:49:39.706Z,5.03
2023-07-21T04:51:48.222Z,6.13
2023-07-21T04:53:54.126Z,6.47
2023-07-21T04:56:00.343Z,6.10
2023-07-21T04:58:10.876Z,8.88
2023-07-21T05:00:19.269Z,6.88
2023-07-21T05:02:26.982Z,5.60
2023-07-21T05:06:44.653Z,5.60
2023-07-21T05:08:52.688Z,7.82
2023-07-21T05:10:59.681Z,7.35
2023-07-21T05:13:07.388Z,10.13
2023-07-21T05:15:36.821Z,8.60
2023-07-21T05:17:57.673Z,7.75
2023-07-21T05:20:15.417Z,4.80
2023-07-21T05:22:38.717Z,5.78
2023-07-21T05:24:46.733Z,7.45
2023-07-21T05:26:57.691Z,6.20
2023-07-21T05:29:16.949Z,6.63
2023-07-21T05:31:25.307Z,7.80
2023-07-21T05:33:37.522Z,7.10
2023-07-21T05:35:45.805Z,6.43
2023-07-21T05:37:56.944Z,9.00
2023-07-21T05:40:06.813Z,6.47
2023-07-21T05:42:13.055Z,8.10
2023-07-21T05:44:18.449Z,6.45
2023-07-21T05:46:24.726Z,8.82
2023-07-21T05:48:43.231Z,6.28
2023-07-21T05:50:51.590Z,8.45
2023-07-21T05:52:57.097Z,7.72
2023-07-21T05:55:10.282Z,6.35
2023-07-21T05:57:15.349Z,6.32
2023-07-21T05:59:25.353Z,6.47
2023-07-21T06:01:29.042Z,8.80
2023-07-21T06:03:37.993Z,7.85
2023-07-21T06:05:44.602Z,7.93
2023-07-21T06:08:22.926Z,8.13
2023-07-21T06:10:49.616Z,7.80
2023-07-21T06:13:22.014Z,9.68
2023-07-21T06:15:48.224Z,8.80
2023-07-21T06:18:04.605Z,9.02
2023-07-21T06:20:21.809Z,7.30
2023-07-21T06:22:27.827Z,6.32
2023-07-21T06:24:33.249Z,6.78
2023-07-21T06:26:42.037Z,7.40
2023-07-21T06:28:52.804Z,7.18
2023-07-21T06:31:00.531Z,7.63
2023-07-21T06:33:41.220Z,11.60
2023-07-21T06:36:09.380Z,10.75
2023-07-21T06:38:35.953Z,7.80
2023-07-21T06:40:55.724Z,7.85
2023-07-21T06:43:27.597Z,8.25
2023-07-21T06:46:05.329Z,8.48
2023-07-21T06:48:48.801Z,8.55
2023-07-21T06:51:12.229Z,8.25
2023-07-21T06:53:19.458Z,8.73
2023-07-21T06:55:25.054Z,7.32
2023-07-21T06:57:33.097Z,7.32
2023-07-21T06:59:41.590Z,6.65
2023-07-21T07:01:47.408Z,7.80
2023-07-21T07:03:52.905Z,11.60
2023-07-21T07:05:59.499Z,7.50
2023-07-21T07:08:05.465Z,10.30
2023-07-21T07:10:15.520Z,6.35
2023-07-21T07:12:21.481Z,6.13
2023-07-21T07:14:28.284Z,10.57
2023-07-21T07:16:37.576Z,7.45
2023-07-21T07:18:44.391Z,8.82
2023-07-21T07:20:53.607Z,8.32
2023-07-21T07:22:58.977Z,6.65
2023-07-21T07:25:05.263Z,8.25
2023-07-21T07:27:11.627Z,8.50
2023-07-21T07:29:18.154Z,6.65
2023-07-21T07:31:23.927Z,7.47
2023-07-21T07:33:36.733Z,7.13
2023-07-21T07:35:54.477Z,8.90
2023-07-21T07:38:00.964Z,6.57
2023-07-21T07:40:08.213Z,9.38
2023-07-21T07:42:13.688Z,9.45
2023-07-21T07:44:19.379Z,11.60
2023-07-21T07:46:25.038Z,8.70
2023-07-21T07:48:35.348Z,8.10
2023-07-21T07:50:40.484Z,8.52
2023-07-21T07:52:46.958Z,8.63
2023-07-21T07:54:52.522Z,6.50
2023-07-21T07:56:58.006Z,9.35
2023-07-21T07:59:04.336Z,9.50
2023-07-21T08:01:14.692Z,8.00
2023-07-21T08:03:20.464Z,7.90
2023-07-21T08:05:26.348Z,10.00
2023-07-21T08:07:34.123Z,6.57
2023-07-21T08:09:39.757Z,9.50
2023-07-21T08:11:45.737Z,8.23
2023-07-21T08:13:51.392Z,7.88
2023-07-21T08:15:57.030Z,8.82
2023-07-21T08:17:59.954Z,6.30
2023-07-21T08:20:06.804Z,7.90
2023-07-21T08:22:16.805Z,8.07
2023-07-21T08:24:22.909Z,10.93
2023-07-21T08:26:28.335Z,6.93
2023-07-21T08:28:37.100Z,5.07
2023-07-21T08:30:56.635Z,6.22
2023-07-21T08:33:08.050Z,7.47
2023-07-21T08:35:14.576Z,6.60
2023-07-21T08:37:27.380Z,6.72
2023-07-21T08:39:33.620Z,5.07
2023-07-21T08:41:42.186Z,8.80
2023-07-21T08:43:48.556Z,7.53
2023-07-21T08:45:55.366Z,6.73
2023-07-21T08:48:02.409Z,7.88
2023-07-21T08:50:09.355Z,4.25
2023-07-21T08:52:16.537Z,4.70
2023-07-21T08:56:30.384Z,4.22
2023-07-21T08:58:44.027Z,5.13
2023-07-21T09:00:50.053Z,5.82
2023-07-21T09:03:04.433Z,3.67
2023-07-21T09:05:11.106Z,4.40
2023-07-21T09:07:17.070Z,4.13
2023-07-21T09:09:26.305Z,3.70
2023-07-21T09:11:38.796Z,3.83
2023-07-21T09:13:44.290Z,4.75
2023-07-21T09:15:58.112Z,3.60
2023-07-21T09:18:04.936Z,5.25
2023-07-21T09:20:13.727Z,4.45
2023-07-21T09:22:27.455Z,4.68
2023-07-21T09:24:35.470Z,4.57
2023-07-21T09:26:43.036Z,3.92
2023-07-21T09:29:00.643Z,5.40
2023-07-21T09:31:03.892Z,3.65
2023-07-21T09:33:09.416Z,4.68
2023-07-21T09:35:15.272Z,4.20
2023-07-21T09:37:22.298Z,4.68
2023-07-21T09:39:28.228Z,3.53
2023-07-21T09:41:39.039Z,3.42
2023-07-21T09:43:46.288Z,3.08
2023-07-21T09:45:52.156Z,3.13
2023-07-21T09:48:00.144Z,3.35
2023-07-21T09:50:05.604Z,4.93
2023-07-21T09:52:15.544Z,4.43
2023-07-21T09:54:26.490Z,3.80
2023-07-21T09:56:43.052Z,3.28
2023-07-21T09:58:57.790Z,2.93
2023-07-21T10:01:06.472Z,4.20
2023-07-21T10:03:12.811Z,4.32
2023-07-21T10:05:18.517Z,3.55
2023-07-21T10:07:26.284Z,2.80
2023-07-21T10:09:32.917Z,4.35
2023-07-21T10:11:46.363Z,3.85
2023-07-21T10:13:52.530Z,3.42
2023-07-21T10:16:01.514Z,6.35
2023-07-21T10:18:12.220Z,3.42
2023-07-21T10:20:18.604Z,6.68
2023-07-21T10:22:29.850Z,3.37
2023-07-21T10:24:35.960Z,6.80
2023-07-21T10:26:54.169Z,6.88
2023-07-21T10:29:17.187Z,3.50
2023-07-21T10:31:37.724Z,4.85
2023-07-21T10:33:43.421Z,5.20
2023-07-21T10:35:49.249Z,3.13
2023-07-21T10:38:25.720Z,3.20
2023-07-21T10:40:31.472Z,3.22
2023-07-21T10:42:42.040Z,3.45
2023-07-21T10:44:50.541Z,4.28
2023-07-21T10:46:54.027Z,4.00
2023-07-21T10:48:59.911Z,5.28
2023-07-21T10:51:06.198Z,3.55
2023-07-21T10:53:13.950Z,5.05
2023-07-21T10:55:23.063Z,3.60
2023-07-21T10:57:41.485Z,3.58
2023-07-21T10:59:48.233Z,3.50
2023-07-21T11:01:56.413Z,3.17
2023-07-21T11:04:03.281Z,3.33
2023-07-21T11:06:09.658Z,3.05
2023-07-21T11:08:28.993Z,5.57
2023-07-21T11:10:37.254Z,3.38
2023-07-21T11:12:45.222Z,8.10
2023-07-21T11:14:51.353Z,6.43
2023-07-21T11:16:58.100Z,4.18
2023-07-21T11:19:04.582Z,6.78
2023-07-21T11:21:09.966Z,3.88
2023-07-21T11:23:18.698Z,5.35
2023-07-21T11:25:25.279Z,3.85
2023-07-21T11:27:34.216Z,4.20
2023-07-21T11:29:45.396Z,2.60
2023-07-21T11:31:51.252Z,3.00
2023-07-21T11:33:56.657Z,2.50
2023-07-21T11:36:02.201Z,3.42
2023-07-21T11:38:12.540Z,3.97
2023-07-21T11:40:26.416Z,2.80
2023-07-21T11:42:46.270Z,3.38
2023-07-21T11:44:54.790Z,3.78
2023-07-21T11:47:07.063Z,3.47
2023-07-21T11:49:17.218Z,2.05
2023-07-21T11:51:24.556Z,3.22
2023-07-21T11:53:30.409Z,2.13
2023-07-21T11:55:36.773Z,4.25
2023-07-21T11:57:50.095Z,1.90
2023-07-21T11:59:58.927Z,2.47
2023-07-21T12:02:08.065Z,3.35
2023-07-21T12:04:11.520Z,6.72
2023-07-21T12:06:16.993Z,2.60
2023-07-21T12:08:27.735Z,1.58
2023-07-21T12:10:33.510Z,2.58
2023-07-21T12:12:38.908Z,1.45
2023-07-21T12:14:44.310Z,3.80
2023-07-21T12:16:55.318Z,2.80
2023-07-21T12:19:02.547Z,1.52
2023-07-21T12:21:08.846Z,1.83
2023-07-21T12:23:16.581Z,3.20
2023-07-21T12:25:25.593Z,2.53
2023-07-21T12:27:34.481Z,1.35
2023-07-21T12:29:45.877Z,3.10
2023-07-21T12:31:55.176Z,3.30
2023-07-21T12:34:01.135Z,2.40
2023-07-21T12:36:07.205Z,2.53
2023-07-21T12:38:12.705Z,4.20
2023-07-21T12:40:18.099Z,2.08
2023-07-21T12:42:25.218Z,4.45
2023-07-21T12:44:30.625Z,5.15
2023-07-21T12:46:36.945Z,3.35
2023-07-21T12:48:48.011Z,2.42
2023-07-21T12:50:53.652Z,2.30
2023-07-21T12:52:59.084Z,2.03
2023-07-21T12:55:04.620Z,1.60
2023-07-21T12:57:11.563Z,2.13
2023-07-21T12:59:16.922Z,2.40
2023-07-21T13:01:22.767Z,5.35
2023-07-21T13:03:28.479Z,3.28
2023-07-21T13:05:50.190Z,1.77
2023-07-21T13:08:01.229Z,2.97
2023-07-21T13:10:07.033Z,3.42
2023-07-21T13:12:13.843Z,2.08
2023-07-21T13:14:19.218Z,2.67
2023-07-21T13:16:26.026Z,2.00
2023-07-21T13:18:34.152Z,2.50
2023-07-21T13:20:42.618Z,2.13
2023-07-21T13:22:48.232Z,3.22
2023-07-21T13:24:53.639Z,3.58
2023-07-21T13:26:59.480Z,2.70
2023-07-21T13:29:05.010Z,3.40
2023-07-21T13:31:13.527Z,2.63
2023-07-21T13:33:19.593Z,4.35
2023-07-21T13:35:27.366Z,2.90
2023-07-21T13:37:44.019Z,2.33
2023-07-21T13:39:49.374Z,3.40
2023-07-21T13:41:55.453Z,4.57
2023-07-21T13:44:00.897Z,4.43
2023-07-21T13:46:06.621Z,6.15
2023-07-21T13:48:16.764Z,3.05
2023-07-21T13:50:22.354Z,2.90
2023-07-21T13:52:28.825Z,3.75
2023-07-21T13:54:37.170Z,4.97
2023-07-21T13:56:42.801Z,2.47
2023-07-21T13:58:48.435Z,3.72
2023-07-21T14:00:57.930Z,3.15
2023-07-21T14:03:03.950Z,2.45
2023-07-21T14:05:10.579Z,2.67
2023-07-21T14:07:18.999Z,3.90
2023-07-21T14:09:24.391Z,3.97
2023-07-21T14:11:34.300Z,3.88
2023-07-21T14:13:40.336Z,5.10
2023-07-21T14:15:46.169Z,4.28
2023-07-21T14:17:52.139Z,5.00
2023-07-21T14:19:59.769Z,3.60
2023-07-21T14:22:05.555Z,4.50
2023-07-21T14:24:11.189Z,3.60
2023-07-21T14:26:16.638Z,6.45
2023-07-21T14:28:25.558Z,4.65
2023-07-21T14:30:31.108Z,3.97
2023-07-21T14:32:37.227Z,3.58
2023-07-21T14:34:42.706Z,3.17
2023-07-21T14:36:48.163Z,6.00
2023-07-21T14:39:00.318Z,2.30
2023-07-21T14:41:06.371Z,4.05
2023-07-21T14:43:12.714Z,4.40
2023-07-21T14:45:20.768Z,3.17
2023-07-21T14:47:27.093Z,3.20
2023-07-21T14:49:33.088Z,2.75
2023-07-21T14:51:40.230Z,4.97
2023-07-21T14:53:46.152Z,2.75
2023-07-21T14:55:51.516Z,4.80
2023-07-21T14:57:56.909Z,4.60
2023-07-21T15:00:06.448Z,2.42
2023-07-21T15:02:16.964Z,3.58
2023-07-21T15:04:23.182Z,2.72
2023-07-21T15:06:28.711Z,5.10
2023-07-21T15:08:40.115Z,4.75
2023-07-21T15:10:46.157Z,4.13
2023-07-21T15:12:52.130Z,3.47
2023-07-21T15:15:00.005Z,4.45
2023-07-21T15:17:08.981Z,3.22
2023-07-21T15:19:17.923Z,7.25
2023-07-21T15:21:23.454Z,4.53
2023-07-21T15:23:28.882Z,3.50
2023-07-21T15:25:34.682Z,5.68
2023-07-21T15:27:43.434Z,3.95
2023-07-21T15:29:49.336Z,4.95
2023-07-21T15:31:54.849Z,5.72
2023-07-21T15:34:00.598Z,5.43
2023-07-21T15:36:08.879Z,4.93
2023-07-21T15:38:15.507Z,4.43
2023-07-21T15:40:22.586Z,6.50
2023-07-21T15:42:28.801Z,4.70
2023-07-21T15:44:34.249Z,8.18
2023-07-21T15:46:39.842Z,4.40
2023-07-21T15:48:45.657Z,4.50
2023-07-21T15:50:50.477Z,4.57
2023-07-21T15:52:58.632Z,6.72
2023-07-21T15:55:01.721Z,4.05
2023-07-21T15:57:07.656Z,9.02
2023-07-21T15:59:10.726Z,6.80
2023-07-21T16:01:17.317Z,4.97
2023-07-21T16:03:22.754Z,5.43
2023-07-21T16:05:28.573Z,4.55
2023-07-21T16:07:36.809Z,4.47
2023-07-21T16:09:45.295Z,6.35
2023-07-21T16:11:50.678Z,6.38
2023-07-21T16:13:55.147Z,5.55
2023-07-21T16:16:07.266Z,4.50
2023-07-21T16:18:12.751Z,4.30
2023-07-21T16:20:18.462Z,5.05
2023-07-21T16:22:25.257Z,3.60
2023-07-21T16:24:30.717Z,5.38
2023-07-21T16:26:39.178Z,5.78
2023-07-21T16:28:46.095Z,3.88
2023-07-21T16:30:53.661Z,6.47
2023-07-21T16:32:59.325Z,4.18
2023-07-21T16:35:05.714Z,8.43
2023-07-21T16:37:16.167Z,6.70
2023-07-21T16:39:21.525Z,4.88
2023-07-21T16:41:27.914Z,5.05
2023-07-21T16:43:36.316Z,4.70
2023-07-21T16:45:45.785Z,5.63
2023-07-21T16:47:51.217Z,3.20
2023-07-21T16:49:56.662Z,4.72
2023-07-21T16:52:09.015Z,5.13
2023-07-21T16:54:14.428Z,3.75
2023-07-21T16:56:20.284Z,6.18
2023-07-21T16:58:33.357Z,3.67
2023-07-21T17:00:46.254Z,4.13
2023-07-21T17:02:51.760Z,4.00
2023-07-21T17:04:59.054Z,2.90
2023-07-21T17:07:04.582Z,4.80
2023-07-21T17:09:10.342Z,3.75
2023-07-21T17:11:20.520Z,5.43
2023-07-21T17:13:25.989Z,3.90
2023-07-21T17:15:31.993Z,4.53
2023-07-21T17:17:47.117Z,5.03
2023-07-21T17:19:53.388Z,4.03
2023-07-21T17:21:58.784Z,3.15
2023-07-21T17:24:04.248Z,3.30
2023-07-21T17:26:10.117Z,3.08
2023-07-21T17:28:19.996Z,2.58
2023-07-21T17:30:27.328Z,5.40
2023-07-21T17:32:30.370Z,3.78
2023-07-21T17:34:38.873Z,4.05
2023-07-21T17:36:44.257Z,6.15
2023-07-21T17:38:49.890Z,3.13
2023-07-21T17:41:05.521Z,3.35
2023-07-21T17:43:10.884Z,3.95
2023-07-21T17:45:18.585Z,2.90
2023-07-21T17:47:29.907Z,5.20
2023-07-21T17:49:38.570Z,4.53
2023-07-21T17:51:43.974Z,3.90
2023-07-21T17:53:54.375Z,4.10
2023-07-21T17:56:00.547Z,3.55
2023-07-21T17:58:05.948Z,4.03
2023-07-21T18:00:14.724Z,3.45
2023-07-21T18:02:22.034Z,3.60
2023-07-21T18:04:32.655Z,4.88
2023-07-21T18:06:40.889Z,4.82
2023-07-21T18:08:47.587Z,3.70
2023-07-21T18:10:53.233Z,6.00
2023-07-21T18:12:59.363Z,3.78
2023-07-21T18:15:14.359Z,4.82
2023-07-21T18:17:23.231Z,8.05
2023-07-21T18:19:28.742Z,4.72
2023-07-21T18:21:34.581Z,3.45
2023-07-21T18:23:42.733Z,4.57
2023-07-21T18:25:51.155Z,5.50
2023-07-21T18:27:56.540Z,4.30
2023-07-21T18:30:02.229Z,4.28
2023-07-21T18:32:08.635Z,4.00
2023-07-21T18:34:14.006Z,4.18
2023-07-21T18:36:21.078Z,5.13
2023-07-21T18:38:28.914Z,4.90
2023-07-21T18:40:36.869Z,2.85
2023-07-21T18:42:42.306Z,5.65
2023-07-21T18:44:49.207Z,5.03
2023-07-21T18:46:55.050Z,3.47
2023-07-21T18:49:00.520Z,8.57
2023-07-21T18:51:08.673Z,5.43
2023-07-21T18:53:14.304Z,4.55
2023-07-21T18:55:19.829Z,4.85
2023-07-21T18:57:31.984Z,4.50
2023-07-21T18:59:37.427Z,3.60
2023-07-21T19:01:44.220Z,6.15
2023-07-21T19:03:50.172Z,6.35
2023-07-21T19:05:55.569Z,3.50
2023-07-21T19:08:01.401Z,4.80
2023-07-21T19:10:08.626Z,5.70
2023-07-21T19:12:14.228Z,4.70
2023-07-21T19:14:22.426Z,2.97
2023-07-21T19:16:28.012Z,5.18
2023-07-21T19:18:38.346Z,3.47
2023-07-21T19:20:45.230Z,5.07
2023-07-21T19:22:48.248Z,6.28
2023-07-21T19:24:56.390Z,5.47
2023-07-21T19:27:02.001Z,4.50
2023-07-21T19:29:08.935Z,6.20
2023-07-21T19:31:23.014Z,4.13
2023-07-21T19:33:29.007Z,5.57
2023-07-21T19:35:38.500Z,5.50
2023-07-21T19:37:44.249Z,6.32
2023-07-21T19:39:50.163Z,4.68
2023-07-21T19:41:55.555Z,5.68
2023-07-21T19:44:01.190Z,4.50
2023-07-21T19:46:06.659Z,7.43
2023-07-21T19:48:14.873Z,5.50
2023-07-21T19:50:20.947Z,5.30
2023-07-21T19:52:26.342Z,4.70
2023-07-21T19:54:32.262Z,4.80
2023-07-21T19:56:39.086Z,6.75
2023-07-21T19:58:45.491Z,4.15
2023-07-21T20:00:48.311Z,4.00
2023-07-21T20:02:54.110Z,5.90
2023-07-21T20:05:02.166Z,6.00
2023-07-21T20:07:07.978Z,5.93
2023-07-21T20:09:10.845Z,3.38
2023-07-21T20:11:17.770Z,5.88
2023-07-21T20:13:24.268Z,7.15
2023-07-21T20:15:29.986Z,5.85
2023-07-21T20:17:37.995Z,7.03
2023-07-21T20:19:43.652Z,5.03
2023-07-21T20:21:51.615Z,5.07
2023-07-21T20:23:57.275Z,5.07
2023-07-21T20:26:02.667Z,3.25
2023-07-21T20:28:08.903Z,4.97
2023-07-21T20:30:16.021Z,4.88
2023-07-21T20:32:21.458Z,5.60
2023-07-21T20:34:27.136Z,5.43
2023-07-21T20:36:32.739Z,4.40
2023-07-21T20:38:45.195Z,4.70
2023-07-21T20:40:51.075Z,5.97
2023-07-21T20:42:56.700Z,5.05
2023-07-21T20:45:02.086Z,4.95
2023-07-21T20:47:07.904Z,4.07
2023-07-21T20:49:16.109Z,6.68
2023-07-21T20:51:21.911Z,6.85
2023-07-21T20:53:27.840Z,5.93
2023-07-21T20:55:36.171Z,8.10
2023-07-21T20:57:47.543Z,5.80
2023-07-21T20:59:52.936Z,6.82
2023-07-21T21:01:58.868Z,5.32
2023-07-21T21:04:05.437Z,6.07
2023-07-21T21:06:14.422Z,6.73
2023-07-21T21:08:20.112Z,6.45
2023-07-21T21:10:23.330Z,7.30
2023-07-21T21:12:32.863Z,7.55
2023-07-21T21:14:38.253Z,8.38
2023-07-21T21:16:43.959Z,8.68
2023-07-21T21:18:49.329Z,8.38
2023-07-21T21:20:55.582Z,8.40
2023-07-21T21:23:01.270Z,6.55
2023-07-21T21:25:07.903Z,9.40
2023-07-21T21:27:14.219Z,8.15
2023-07-21T21:29:22.148Z,7.72
2023-07-21T21:31:28.232Z,8.23
2023-07-21T21:33:34.866Z,7.43
2023-07-21T21:35:40.299Z,10.27
2023-07-21T21:37:51.199Z,10.52
2023-07-21T21:39:56.576Z,7.43
2023-07-21T21:41:59.706Z,8.80
2023-07-21T21:44:05.064Z,7.82
2023-07-21T21:46:13.424Z,7.70
2023-07-21T21:48:20.690Z,8.35
2023-07-21T21:50:26.212Z,9.07
2023-07-21T21:52:31.967Z,5.97
2023-07-21T21:54:37.444Z,7.60
2023-07-21T21:56:43.226Z,8.43
2023-07-21T21:58:49.138Z,5.95
2023-07-21T22:00:54.525Z,9.25
2023-07-21T22:03:02.834Z,8.70
2023-07-21T22:05:08.960Z,8.65
2023-07-21T22:07:12.182Z,8.35
2023-07-21T22:09:18.246Z,6.68
2023-07-21T22:11:23.710Z,8.13
2023-07-21T22:13:29.453Z,7.35
2023-07-21T22:15:35.439Z,6.38
2023-07-21T22:17:41.662Z,8.07
2023-07-21T22:20:03.786Z,8.55
2023-07-21T22:22:14.768Z,7.50
2023-07-21T22:24:20.559Z,8.63
2023-07-21T22:26:26.434Z,8.18
2023-07-21T22:28:33.215Z,6.10
2023-07-21T22:30:39.055Z,7.38
2023-07-21T22:32:44.753Z,7.03
2023-07-21T22:34:52.750Z,7.95
2023-07-21T22:36:58.321Z,8.27
2023-07-21T22:39:06.973Z,7.22
2023-07-21T22:41:15.516Z,7.60
2023-07-21T22:43:23.872Z,6.50
2023-07-21T22:45:29.315Z,6.03
2023-07-21T22:47:35.361Z,5.95
2023-07-21T22:49:41.226Z,7.90
2023-07-21T22:51:49.157Z,7.18
2023-07-21T22:53:54.972Z,8.52
2023-07-21T22:56:00.634Z,6.30
2023-07-21T22:58:06.105Z,7.85
2023-07-21T23:00:15.563Z,6.00
2023-07-21T23:02:22.187Z,9.35
2023-07-21T23:04:28.165Z,7.63
2023-07-21T23:06:31.033Z,7.90
2023-07-21T23:08:45.725Z,6.75
2023-07-21T23:10:51.105Z,6.88
2023-07-21T23:12:56.764Z,6.38
2023-07-21T23:15:02.719Z,6.25
2023-07-21T23:17:08.495Z,5.88
2023-07-21T23:19:15.355Z,8.05
2023-07-21T23:21:20.698Z,6.90
2023-07-21T23:23:26.196Z,7.55
2023-07-21T23:25:34.533Z,9.70
2023-07-21T23:27:40.014Z,6.10
2023-07-21T23:29:45.638Z,5.68
2023-07-21T23:31:51.004Z,4.93
2023-07-21T23:34:00.334Z,7.63
2023-07-21T23:36:06.236Z,5.53
2023-07-21T23:38:11.772Z,11.48
2023-07-21T23:40:17.771Z,9.65
2023-07-21T23:42:28.730Z,8.50
2023-07-21T23:44:34.970Z,7.55
2023-07-21T23:46:41.104Z,7.53
2023-07-21T23:48:48.530Z,8.73
2023-07-21T23:50:53.911Z,6.75
2023-07-21T23:52:59.268Z,7.00
2023-07-21T23:55:04.915Z,7.93
2023-07-21T23:57:12.847Z,5.75
